Time;durP1;ratioP1;P1;durP2;ratioP2;P2;SDS_P1;SDS_P2;PMS_P1;PMS_P2;Temp;Humidity;BMP_temperature;BMP_pressure;BME280_temperature;BME280_humidity;BME280_pressure;Samples;Min_cycle;Max_cycle;Signal;HPM_P1;HPM_P2
2021/08/27 00:00:03;;;;;;;8.13;3.17;;;16.30;99.90;;;;;;5052797;28;20033;-69
2021/08/27 00:02:29;;;;;;;4.30;2.05;;;16.30;99.90;;;;;;5035091;28;20052;-69
2021/08/27 00:04:55;;;;;;;3.83;2.05;;;16.30;99.90;;;;;;5052691;28;20037;-69
2021/08/27 00:07:21;;;;;;;5.47;3.20;;;16.10;99.90;;;;;;5052459;28;20037;-69
2021/08/27 00:09:46;;;;;;;6.13;2.95;;;16.10;99.90;;;;;;5052902;28;20492;-69
2021/08/27 00:12:12;;;;;;;6.28;3.17;;;16.00;99.90;;;;;;5034240;28;20037;-70
2021/08/27 00:14:38;;;;;;;6.63;3.00;;;16.00;99.90;;;;;;5032408;28;20037;-70
2021/08/27 00:17:04;;;;;;;5.72;2.97;;;16.00;99.90;;;;;;5032348;28;20053;-69
2021/08/27 00:19:30;;;;;;;5.63;3.08;;;15.90;99.90;;;;;;5047262;28;20041;-70
2021/08/27 00:21:55;;;;;;;5.88;3.15;;;15.90;99.90;;;;;;5032679;28;20030;-70
2021/08/27 00:24:21;;;;;;;5.88;2.95;;;15.90;99.90;;;;;;5032355;28;20025;-70
2021/08/27 00:26:47;;;;;;;7.22;3.28;;;15.80;99.90;;;;;;5032424;28;20042;-69
2021/08/27 00:29:13;;;;;;;9.77;3.25;;;15.60;99.90;;;;;;5032232;28;20221;-70
2021/08/27 00:31:39;;;;;;;7.32;3.08;;;15.60;99.90;;;;;;5032517;28;20040;-70
2021/08/27 00:34:04;;;;;;;8.02;3.13;;;15.50;99.90;;;;;;5032214;28;20441;-70
2021/08/27 00:36:30;;;;;;;8.35;3.33;;;15.60;99.90;;;;;;5032159;28;20038;-69
2021/08/27 00:38:56;;;;;;;5.03;2.95;;;15.60;99.90;;;;;;5032171;28;20064;-69
2021/08/27 00:41:22;;;;;;;7.65;3.72;;;15.70;99.90;;;;;;5032025;28;20021;-69
2021/08/27 00:43:47;;;;;;;8.77;3.20;;;15.70;99.90;;;;;;5032453;28;20060;-69
2021/08/27 00:46:13;;;;;;;5.18;3.15;;;15.80;99.90;;;;;;5032266;28;20037;-69
2021/08/27 00:48:40;;;;;;;7.65;3.40;;;15.70;99.90;;;;;;5031461;28;20033;-69
2021/08/27 00:51:06;;;;;;;8.25;3.40;;;15.70;99.90;;;;;;5052045;28;20079;-70
2021/08/27 00:53:33;;;;;;;6.72;2.97;;;15.70;99.90;;;;;;5052345;28;20116;-69
2021/08/27 00:56:01;;;;;;;8.57;2.92;;;15.70;99.90;;;;;;5052233;28;20025;-69
2021/08/27 00:58:26;;;;;;;5.72;2.78;;;15.70;99.90;;;;;;5051917;28;20037;-69
2021/08/27 01:00:52;;;;;;;5.88;2.63;;;15.70;99.90;;;;;;5047859;28;20095;-69
2021/08/27 01:03:19;;;;;;;3.00;2.25;;;15.80;99.90;;;;;;5031803;28;20092;-69
2021/08/27 01:05:51;;;;;;;5.95;2.47;;;15.70;99.90;;;;;;5014556;28;20411;-69
2021/08/27 01:08:33;;;;;;;6.13;2.55;;;15.80;99.90;;;;;;5031689;28;20033;-69
2021/08/27 01:11:06;;;;;;;;;;;15.70;99.90;;;;;;5030031;28;20037;-69
2021/08/27 01:13:41;;;;;;;4.40;2.30;;;15.70;99.90;;;;;;5034232;28;19939;-69
2021/08/27 01:16:21;;;;;;;6.78;2.28;;;15.70;99.90;;;;;;5034914;28;20029;-69
2021/08/27 01:18:58;;;;;;;7.72;2.38;;;15.60;99.90;;;;;;5034510;28;20490;-69
2021/08/27 01:22:04;;;;;;;5.15;2.60;;;15.70;99.90;;;;;;5018939;28;20095;-69
2021/08/27 01:24:32;;;;;;;6.57;2.00;;;15.70;99.90;;;;;;5035519;28;20482;-69
2021/08/27 01:27:04;;;;;;;3.97;2.13;;;15.60;99.90;;;;;;5034752;28;20069;-69
2021/08/27 01:29:54;;;;;;;6.45;2.17;;;15.60;99.90;;;;;;5034444;28;20060;-69
2021/08/27 01:32:30;;;;;;;3.83;2.00;;;15.50;99.90;;;;;;5028748;28;20130;-69
2021/08/27 01:34:56;;;;;;;3.90;1.33;;;15.50;99.90;;;;;;5014927;28;20038;-69
2021/08/27 01:37:23;;;;;;;5.15;1.55;;;15.60;99.90;;;;;;5014285;28;20072;-69
2021/08/27 01:39:56;;;;;;;2.63;1.52;;;15.60;99.90;;;;;;5015726;28;20061;-69
2021/08/27 01:42:27;;;;;;;4.22;1.48;;;15.60;99.90;;;;;;5027014;28;20026;-68
2021/08/27 01:44:58;;;;;;;2.05;1.27;;;15.60;99.90;;;;;;5030671;28;20113;-68
2021/08/27 01:47:31;;;;;;;3.53;1.88;;;15.50;99.90;;;;;;5014255;28;20038;-68
2021/08/27 01:49:59;;;;;;;5.28;1.88;;;15.50;99.90;;;;;;5030323;28;20053;-69
2021/08/27 01:52:26;;;;;;;4.80;2.45;;;15.40;99.90;;;;;;5033026;28;20037;-69
2021/08/27 01:54:52;;;;;;;3.30;1.70;;;15.30;99.90;;;;;;5050153;28;20030;-68
2021/08/27 01:57:19;;;;;;;4.72;2.65;;;15.20;99.90;;;;;;5035036;28;20030;-69
2021/08/27 01:59:45;;;;;;;4.95;2.75;;;15.20;99.90;;;;;;5035180;28;20037;-69
2021/08/27 02:02:16;;;;;;;7.78;2.13;;;15.20;99.90;;;;;;5035005;28;20037;-68
2021/08/27 02:04:48;;;;;;;7.18;2.08;;;15.20;99.90;;;;;;5050092;28;20033;-69
2021/08/27 02:07:14;;;;;;;4.25;2.40;;;15.10;99.90;;;;;;5050305;28;20124;-69
2021/08/27 02:09:41;;;;;;;6.22;2.17;;;15.10;99.90;;;;;;5050279;28;20386;-68
2021/08/27 02:12:08;;;;;;;4.80;1.92;;;15.00;99.90;;;;;;5050386;28;20030;-69
2021/08/27 02:14:36;;;;;;;4.85;1.90;;;15.00;99.90;;;;;;5049553;28;20501;-69
2021/08/27 02:17:06;;;;;;;5.72;2.33;;;15.00;99.90;;;;;;5034097;28;20048;-69
2021/08/27 02:19:33;;;;;;;5.63;3.08;;;15.00;99.90;;;;;;5034879;28;20025;-69
2021/08/27 02:22:00;;;;;;;4.95;1.88;;;15.00;99.90;;;;;;5050056;28;20080;-68
2021/08/27 02:24:37;;;;;;;4.55;2.25;;;15.00;99.90;;;;;;5033136;28;20422;-69
2021/08/27 02:27:06;;;;;;;4.80;2.10;;;15.00;99.90;;;;;;5049591;28;20040;-68
2021/08/27 02:29:35;;;;;;;3.65;2.25;;;15.00;99.90;;;;;;5033447;28;20048;-68
2021/08/27 02:32:06;;;;;;;5.82;2.17;;;15.00;99.90;;;;;;5049623;28;20503;-69
2021/08/27 02:34:35;;;;;;;5.40;2.47;;;14.90;99.90;;;;;;5049470;28;20037;-69
2021/08/27 02:37:03;;;;;;;6.43;2.00;;;14.90;99.90;;;;;;5034309;28;20129;-69
2021/08/27 02:39:29;;;;;;;4.32;2.00;;;14.90;99.90;;;;;;5049434;28;20041;-69
2021/08/27 02:41:57;;;;;;;8.80;2.40;;;14.80;99.90;;;;;;5049880;28;20099;-68
2021/08/27 02:44:25;;;;;;;5.75;2.13;;;14.70;99.90;;;;;;5034131;28;20029;-69
2021/08/27 02:46:51;;;;;;;4.18;1.80;;;14.70;99.90;;;;;;5049508;28;20033;-68
2021/08/27 02:49:17;;;;;;;4.72;1.92;;;14.60;99.90;;;;;;5034213;28;20079;-68
2021/08/27 02:52:06;;;;;;;5.40;2.30;;;14.60;99.90;;;;;;5049514;28;20554;-68
2021/08/27 02:54:44;;;;;;;5.70;2.33;;;14.60;99.90;;;;;;5048649;28;20033;-68
2021/08/27 02:57:10;;;;;;;4.63;2.20;;;14.50;99.90;;;;;;5034347;28;20029;-68
2021/08/27 02:59:38;;;;;;;4.45;2.13;;;14.50;99.90;;;;;;5049333;28;20466;-68
2021/08/27 03:02:07;;;;;;;9.57;2.25;;;14.40;99.90;;;;;;5049426;28;20063;-68
2021/08/27 03:04:42;;;;;;;7.32;2.38;;;14.40;99.90;;;;;;5048733;28;20109;-68
2021/08/27 03:07:13;;;;;;;8.05;2.13;;;14.40;99.90;;;;;;5034010;28;20034;-68
2021/08/27 03:10:02;;;;;;;6.45;2.15;;;14.40;99.90;;;;;;5048808;28;20033;-68
2021/08/27 03:12:44;;;;;;;3.70;2.08;;;14.40;99.90;;;;;;5033586;28;20497;-69
2021/08/27 03:15:16;;;;;;;6.50;2.30;;;14.30;99.90;;;;;;5033499;28;20083;-68
2021/08/27 03:17:42;;;;;;;3.95;2.42;;;14.30;99.90;;;;;;5048312;28;20089;-68
2021/08/27 03:20:51;;;;;;;5.55;2.20;;;14.30;99.90;;;;;;5049144;28;20065;-68
2021/08/27 03:23:19;;;;;;;4.85;2.20;;;14.30;99.90;;;;;;5047912;28;20045;-68
2021/08/27 03:25:46;;;;;;;4.53;2.00;;;14.20;99.90;;;;;;5048620;28;20025;-68
2021/08/27 03:28:27;;;;;;;6.60;2.42;;;14.10;99.90;;;;;;5032261;28;20042;-68
2021/08/27 03:30:56;;;;;;;4.80;2.00;;;14.20;99.90;;;;;;5048529;28;20099;-68
2021/08/27 03:33:25;;;;;;;5.95;2.65;;;14.20;99.90;;;;;;5033527;28;20064;-68
2021/08/27 03:35:54;;;;;;;6.63;2.20;;;14.20;99.90;;;;;;5047892;28;20103;-68
2021/08/27 03:38:27;;;;;;;5.32;2.80;;;14.20;99.90;;;;;;5048605;28;20021;-69
2021/08/27 03:40:55;;;;;;;7.88;2.55;;;14.20;99.90;;;;;;5047940;28;20033;-68
2021/08/27 03:43:22;;;;;;;5.97;2.05;;;14.10;99.90;;;;;;5048369;28;20109;-68
2021/08/27 03:45:50;;;;;;;8.68;2.97;;;14.00;99.90;;;;;;5048648;28;20036;-68
2021/08/27 03:48:21;;;;;;;6.55;2.28;;;14.00;99.90;;;;;;5048529;28;20025;-68
2021/08/27 03:50:49;;;;;;;8.40;2.45;;;13.90;99.90;;;;;;5032920;28;20037;-68
2021/08/27 03:53:17;;;;;;;6.55;2.08;;;13.90;99.90;;;;;;5048139;28;20490;-68
2021/08/27 03:55:46;;;;;;;9.93;2.38;;;13.90;99.90;;;;;;5048337;28;20124;-69
2021/08/27 03:58:14;;;;;;;7.15;2.72;;;13.90;99.90;;;;;;5030820;28;20029;-69
2021/08/27 04:00:40;;;;;;;6.55;2.50;;;13.80;99.90;;;;;;5047734;28;20053;-68
2021/08/27 04:03:06;;;;;;;6.10;1.98;;;13.90;99.90;;;;;;5030669;28;20059;-73
2021/08/27 04:05:32;;;;;;;4.70;2.28;;;13.90;99.90;;;;;;5011701;28;20030;-73
2021/08/27 04:07:58;;;;;;;6.28;2.10;;;13.80;99.90;;;;;;5011901;28;20038;-73
2021/08/27 04:10:24;;;;;;;4.35;1.90;;;13.90;99.90;;;;;;5018267;28;20047;-74
2021/08/27 04:12:49;;;;;;;5.85;2.42;;;13.90;99.90;;;;;;5032013;28;20044;-72
2021/08/27 04:15:18;;;;;;;6.68;2.10;;;13.90;99.90;;;;;;5032771;28;20144;-70
2021/08/27 04:17:44;;;;;;;4.97;2.20;;;13.90;99.90;;;;;;5031049;28;20046;-70
2021/08/27 04:20:13;;;;;;;7.18;2.30;;;13.90;99.90;;;;;;5014758;28;20569;-71
2021/08/27 04:22:39;;;;;;;8.07;2.60;;;13.80;99.90;;;;;;5031072;28;20356;-71
2021/08/27 04:25:06;;;;;;;7.20;1.90;;;13.70;99.90;;;;;;5015068;28;20075;-72
2021/08/27 04:27:31;;;;;;;24.83;11.70;;;13.70;99.90;;;;;;5031088;28;20045;-74
2021/08/27 04:29:57;;;;;;;7.60;2.47;;;13.60;99.90;;;;;;5032193;28;20025;-76
2021/08/27 04:32:23;;;;;;;7.65;2.38;;;13.60;99.90;;;;;;5032003;28;20175;-74
2021/08/27 04:34:49;;;;;;;5.90;2.22;;;13.70;99.90;;;;;;5031874;28;20029;-74
2021/08/27 04:37:15;;;;;;;6.03;2.70;;;13.60;99.90;;;;;;5031898;28;20382;-77
2021/08/27 04:39:41;;;;;;;4.47;2.22;;;13.50;99.90;;;;;;5032371;28;20034;-78
2021/08/27 04:42:06;;;;;;;4.72;1.73;;;13.50;99.90;;;;;;5031930;28;20482;-78
2021/08/27 04:44:32;;;;;;;5.75;2.15;;;13.30;99.90;;;;;;5032349;28;20041;-79
2021/08/27 04:46:58;;;;;;;6.22;1.77;;;13.40;99.90;;;;;;5031358;28;20036;-75
2021/08/27 04:49:24;;;;;;;8.88;2.75;;;13.40;99.90;;;;;;5032281;28;20045;-81
2021/08/27 04:51:50;;;;;;;5.22;1.88;;;13.30;99.90;;;;;;5032004;28;20116;-73
2021/08/27 04:54:16;;;;;;;4.95;1.75;;;13.30;99.90;;;;;;5047645;28;20079;-72
2021/08/27 04:56:42;;;;;;;7.78;2.42;;;13.20;99.90;;;;;;5046812;28;20034;-72
2021/08/27 04:59:08;;;;;;;5.72;1.70;;;13.20;99.90;;;;;;5031374;28;20067;-72
2021/08/27 05:01:34;;;;;;;4.50;1.67;;;13.20;99.90;;;;;;5040898;28;20034;-72
2021/08/27 05:03:59;;;;;;;5.07;2.28;;;13.20;99.90;;;;;;5012310;28;20447;-72
2021/08/27 05:06:25;;;;;;;6.72;2.05;;;13.20;99.90;;;;;;5011898;28;20026;-72
2021/08/27 05:08:51;;;;;;;3.75;1.83;;;13.10;99.90;;;;;;5012290;28;20108;-70
2021/08/27 05:11:17;;;;;;;6.03;2.22;;;13.10;99.90;;;;;;5026829;28;20033;-71
2021/08/27 05:13:43;;;;;;;7.72;2.38;;;12.90;99.90;;;;;;5009644;28;20042;-72
2021/08/27 05:16:08;;;;;;;4.45;2.35;;;13.00;99.90;;;;;;5010624;28;20037;-72
2021/08/27 05:18:34;;;;;;;3.75;1.95;;;13.00;99.90;;;;;;5011860;28;20058;-73
2021/08/27 05:21:00;;;;;;;7.28;2.10;;;12.90;99.90;;;;;;5010943;28;20089;-72
2021/08/27 05:23:26;;;;;;;5.18;2.20;;;13.00;99.90;;;;;;5010825;28;20041;-72
2021/08/27 05:25:55;;;;;;;4.32;1.80;;;13.10;99.90;;;;;;5010914;28;20029;-72
2021/08/27 05:28:21;;;;;;;6.60;1.67;;;13.20;99.90;;;;;;5010109;28;20053;-72
2021/08/27 05:30:46;;;;;;;8.18;2.30;;;13.20;99.90;;;;;;5009565;28;20061;-72
2021/08/27 05:33:12;;;;;;;7.07;2.22;;;13.30;99.90;;;;;;5028890;28;20449;-72
2021/08/27 05:35:40;;;;;;;8.00;2.70;;;13.40;99.90;;;;;;5030691;28;20037;-69
2021/08/27 05:38:06;;;;;;;6.25;1.92;;;13.40;99.90;;;;;;5018946;28;20044;-73
2021/08/27 05:40:32;;;;;;;7.13;2.00;;;13.40;99.90;;;;;;5031779;28;20045;-73
2021/08/27 05:42:58;;;;;;;7.63;2.65;;;13.40;99.90;;;;;;5030303;28;20026;-73
2021/08/27 05:45:23;;;;;;;4.82;1.98;;;13.50;99.90;;;;;;5031945;28;20527;-72
2021/08/27 05:47:49;;;;;;;5.80;2.25;;;13.50;99.90;;;;;;5031343;28;20034;-73
2021/08/27 05:50:17;;;;;;;7.15;1.80;;;13.60;99.90;;;;;;5031828;28;20054;-72
2021/08/27 05:52:44;;;;;;;5.40;2.00;;;13.60;99.90;;;;;;5046741;28;20037;-73
2021/08/27 05:55:10;;;;;;;8.10;2.20;;;13.70;99.90;;;;;;5030263;28;20029;-73
2021/08/27 05:57:36;;;;;;;14.35;3.08;;;13.80;99.90;;;;;;5030546;28;20320;-73
2021/08/27 06:00:05;;;;;;;6.15;1.90;;;13.70;99.90;;;;;;5050413;28;20030;-72
2021/08/27 06:02:31;;;;;;;4.40;1.60;;;13.80;99.90;;;;;;5034346;28;20111;-71
2021/08/27 06:04:59;;;;;;;6.45;1.80;;;13.80;99.90;;;;;;5035051;28;20470;-72
2021/08/27 06:07:28;;;;;;;8.52;2.10;;;13.90;99.90;;;;;;5033392;28;20427;-72
2021/08/27 06:09:54;;;;;;;6.55;1.88;;;13.90;99.90;;;;;;5033701;28;20386;-73
2021/08/27 06:12:20;;;;;;;4.82;1.80;;;14.00;99.90;;;;;;5025644;28;20080;-72
2021/08/27 06:14:46;;;;;;;5.80;1.80;;;14.10;99.90;;;;;;5024012;28;20401;-72
2021/08/27 06:17:12;;;;;;;5.13;1.70;;;14.10;99.90;;;;;;5033562;28;20042;-72
2021/08/27 06:19:38;;;;;;;6.57;2.00;;;14.20;99.90;;;;;;5034678;28;20041;-72
2021/08/27 06:22:04;;;;;;;4.97;1.65;;;14.40;99.90;;;;;;5034826;28;20500;-72
2021/08/27 06:24:30;;;;;;;6.22;2.15;;;14.40;99.90;;;;;;5016868;28;20144;-72
2021/08/27 06:26:56;;;;;;;6.25;1.90;;;14.50;99.90;;;;;;5034380;28;20079;-72
2021/08/27 06:29:22;;;;;;;4.90;1.55;;;14.50;99.90;;;;;;5034757;28;20033;-72
2021/08/27 06:31:48;;;;;;;10.27;2.20;;;14.50;99.90;;;;;;5033051;28;20421;-72
2021/08/27 06:34:14;;;;;;;4.85;1.77;;;14.50;99.90;;;;;;5034255;28;20110;-72
2021/08/27 06:36:40;;;;;;;9.43;2.17;;;14.70;99.90;;;;;;5034298;28;20072;-72
2021/08/27 06:39:06;;;;;;;5.20;1.90;;;14.70;99.90;;;;;;5032829;28;20452;-72
2021/08/27 06:41:32;;;;;;;8.35;2.47;;;14.80;99.90;;;;;;5051854;28;20033;-73
2021/08/27 06:43:57;;;;;;;6.10;1.63;;;14.90;99.90;;;;;;5054365;28;20390;-72
2021/08/27 06:46:26;;;;;;;7.43;2.58;;;15.00;99.90;;;;;;5052975;28;20029;-72
2021/08/27 06:48:53;;;;;;;5.25;2.38;;;15.10;99.90;;;;;;5036127;28;20496;-72
2021/08/27 06:51:19;;;;;;;7.80;2.42;;;15.10;99.90;;;;;;5053411;28;20465;-72
2021/08/27 06:53:44;;;;;;;7.13;2.58;;;15.10;99.90;;;;;;5053728;28;20037;-72
2021/08/27 06:56:10;;;;;;;7.20;2.63;;;15.10;99.90;;;;;;5054037;28;20035;-72
2021/08/27 06:58:36;;;;;;;8.82;2.55;;;15.20;99.90;;;;;;5052470;28;20116;-71
2021/08/27 07:01:03;;;;;;;10.48;2.53;;;15.30;99.90;;;;;;5036282;28;20040;-73
2021/08/27 07:03:29;;;;;;;8.65;2.60;;;15.40;99.90;;;;;;5052739;28;20489;-73
2021/08/27 07:05:55;;;;;;;6.50;2.20;;;15.60;99.90;;;;;;5052957;28;20040;-72
2021/08/27 07:08:21;;;;;;;6.32;2.30;;;15.60;99.90;;;;;;5052461;28;20060;-73
2021/08/27 07:10:48;;;;;;;7.45;2.45;;;15.60;99.90;;;;;;5051427;28;20033;-72
2021/08/27 07:13:14;;;;;;;7.90;2.42;;;15.80;99.90;;;;;;5035865;28;20053;-73
2021/08/27 07:15:40;;;;;;;6.45;2.33;;;15.90;99.90;;;;;;5053553;28;20143;-73
2021/08/27 07:18:07;;;;;;;12.35;4.95;;;15.90;99.90;;;;;;5052210;28;20082;-73
2021/08/27 07:20:33;;;;;;;9.75;1.90;;;16.10;99.90;;;;;;5051984;28;20121;-73
2021/08/27 07:22:58;;;;;;;4.72;1.55;;;16.10;99.90;;;;;;5053785;28;20053;-72
2021/08/27 07:25:26;;;;;;;6.85;1.75;;;16.10;99.90;;;;;;5053562;28;20439;-72
2021/08/27 07:27:52;;;;;;;10.18;1.60;;;16.20;99.90;;;;;;5052328;28;20029;-73
2021/08/27 07:30:18;;;;;;;10.20;1.88;;;16.40;99.90;;;;;;5051964;28;20029;-72
2021/08/27 07:32:44;;;;;;;6.20;1.65;;;16.80;99.90;;;;;;5051868;28;20032;-73
2021/08/27 07:35:11;;;;;;;4.63;1.70;;;17.10;99.90;;;;;;5052092;28;20155;-73
2021/08/27 07:37:39;;;;;;;6.20;1.63;;;17.00;99.90;;;;;;5051865;28;20087;-73
2021/08/27 07:40:09;;;;;;;7.40;2.60;;;17.00;99.90;;;;;;5051588;28;20082;-73
2021/08/27 07:42:35;;;;;;;8.57;1.95;;;16.80;99.90;;;;;;5053237;28;20140;-73
2021/08/27 07:45:01;;;;;;;5.65;1.75;;;16.70;99.90;;;;;;5053373;28;20125;-74
2021/08/27 07:47:30;;;;;;;6.63;2.08;;;16.60;99.90;;;;;;5052779;28;20032;-74
2021/08/27 07:49:56;;;;;;;7.82;1.95;;;16.50;99.90;;;;;;5052951;28;20476;-74
2021/08/27 07:52:22;;;;;;;6.15;1.95;;;16.60;99.90;;;;;;5051774;28;20060;-74
2021/08/27 07:54:47;;;;;;;9.20;2.55;;;16.80;99.90;;;;;;5052923;28;20035;-74
2021/08/27 07:57:13;;;;;;;8.48;2.40;;;17.00;99.90;;;;;;5052665;28;20124;-73
2021/08/27 07:59:39;;;;;;;7.97;1.77;;;16.90;99.90;;;;;;5052747;28;20472;-73
2021/08/27 08:02:05;;;;;;;4.93;1.80;;;17.00;99.90;;;;;;5052616;28;20098;-74
2021/08/27 08:04:30;;;;;;;4.03;1.58;;;17.10;99.90;;;;;;5052878;28;20096;-73
2021/08/27 08:06:56;;;;;;;6.75;1.98;;;17.00;99.90;;;;;;5051705;28;20048;-73
2021/08/27 08:09:22;;;;;;;8.23;2.10;;;16.90;99.90;;;;;;5051452;28;20036;-73
2021/08/27 08:11:48;;;;;;;6.55;1.95;;;17.00;99.90;;;;;;5052709;28;20028;-73
2021/08/27 08:14:14;;;;;;;3.97;1.55;;;16.80;99.90;;;;;;5052732;28;20043;-73
2021/08/27 08:16:39;;;;;;;6.75;2.10;;;16.90;99.90;;;;;;5052225;28;20500;-74
2021/08/27 08:19:05;;;;;;;6.75;1.67;;;17.10;99.90;;;;;;5031199;28;20049;-73
2021/08/27 08:21:31;;;;;;;8.05;1.88;;;17.10;99.90;;;;;;5052369;28;20036;-77
2021/08/27 08:23:57;;;;;;;6.88;1.92;;;17.20;99.90;;;;;;5052192;28;20032;-76
2021/08/27 08:26:23;;;;;;;7.18;1.80;;;17.10;99.90;;;;;;5052711;28;20029;-77
2021/08/27 08:28:51;;;;;;;7.65;2.00;;;17.00;99.90;;;;;;5052373;28;20032;-76
2021/08/27 08:31:20;;;;;;;7.55;1.83;;;17.20;99.90;;;;;;5051078;28;20056;-77
2021/08/27 08:33:55;;;;;;;5.38;1.67;;;17.40;99.90;;;;;;5051675;28;20114;-77
2021/08/27 08:36:22;;;;;;;5.90;1.85;;;17.60;99.90;;;;;;5052505;28;20024;-77
2021/08/27 08:38:50;;;;;;;5.00;2.05;;;17.70;99.90;;;;;;5052172;28;20477;-77
2021/08/27 08:41:18;;;;;;;7.65;2.10;;;17.50;99.90;;;;;;5051046;28;20025;-77
2021/08/27 08:43:46;;;;;;;8.13;1.70;;;17.60;99.90;;;;;;5050643;28;20025;-77
2021/08/27 08:46:13;;;;;;;4.78;1.83;;;17.50;99.90;;;;;;5052165;28;20035;-78
2021/08/27 08:48:44;;;;;;;5.65;2.30;;;17.70;99.90;;;;;;5051885;28;20033;-77
2021/08/27 08:51:11;;;;;;;5.82;1.77;;;17.90;99.90;;;;;;5051129;28;20029;-77
2021/08/27 08:53:40;;;;;;;5.63;2.30;;;18.10;99.90;;;;;;5050493;28;20044;-77
2021/08/27 08:56:10;;;;;;;8.93;2.50;;;18.40;99.90;;;;;;5052139;28;20036;-77
2021/08/27 08:58:36;;;;;;;6.88;2.72;;;18.60;99.90;;;;;;5050810;28;20043;-78
2021/08/27 09:01:03;;;;;;;7.03;2.40;;;18.70;99.90;;;;;;5052096;28;20116;-77
2021/08/27 09:03:29;;;;;;;5.38;2.42;;;18.70;99.90;;;;;;5050755;28;20037;-77
2021/08/27 09:05:55;;;;;;;5.95;1.90;;;18.90;99.90;;;;;;5050662;28;20032;-77
2021/08/27 09:08:55;;;;;;;5.50;2.03;;;18.90;99.90;;;;;;5050890;28;20037;-77
2021/08/27 09:11:24;;;;;;;5.80;1.98;;;19.10;99.90;;;;;;5039899;28;20051;-77
2021/08/27 09:14:03;;;;;;;8.05;2.53;;;19.10;99.90;;;;;;5050595;28;20037;-77
2021/08/27 09:16:32;;;;;;;4.80;2.40;;;19.00;99.90;;;;;;5050943;28;20075;-77
2021/08/27 09:18:59;;;;;;;5.53;2.63;;;18.70;99.90;;;;;;5050169;28;20040;-76
2021/08/27 09:21:27;;;;;;;7.47;2.80;;;18.50;99.90;;;;;;5050553;28;20059;-77
2021/08/27 09:24:20;;;;;;;8.98;2.42;;;18.30;99.90;;;;;;5051480;28;20060;-76
2021/08/27 09:26:59;;;;;;;4.80;2.25;;;18.20;99.90;;;;;;5050519;28;20041;-76
2021/08/27 09:29:43;;;;;;;5.72;2.60;;;18.30;99.90;;;;;;5050440;28;20116;-76
2021/08/27 09:32:29;;;;;;;4.38;2.70;;;18.50;99.90;;;;;;5050715;28;20049;-76
2021/08/27 09:35:18;;;;;;;5.07;2.60;;;18.60;99.90;;;;;;5055134;28;20099;-75
2021/08/27 09:37:53;;;;;;;8.60;2.47;;;18.60;99.90;;;;;;5054606;28;20152;-76
2021/08/27 09:40:28;;;;;;;5.28;2.45;;;18.80;99.90;;;;;;5054469;28;20036;-76
2021/08/27 09:42:56;;;;;;;5.72;2.70;;;18.90;99.90;;;;;;5024512;28;20040;-75
2021/08/27 09:45:44;;;;;;;7.60;2.95;;;18.90;99.90;;;;;;5035118;28;20037;-76
2021/08/27 09:48:13;;;;;;;6.45;2.95;;;18.80;99.90;;;;;;5035592;28;20044;-76
2021/08/27 09:50:49;;;;;;;7.05;3.72;;;18.30;99.90;;;;;;5033851;28;20029;-77
2021/08/27 09:53:18;;;;;;;10.63;4.50;;;18.10;99.90;;;;;;5035170;28;20037;-76
2021/08/27 09:55:59;;;;;;;9.43;4.63;;;17.80;99.90;;;;;;5017645;28;20044;-77
2021/08/27 09:58:26;;;;;;;9.65;4.22;;;18.00;99.90;;;;;;5035571;28;20059;-77
2021/08/27 10:01:05;;;;;;;9.60;3.55;;;18.30;99.90;;;;;;5034023;28;20029;-76
2021/08/27 10:03:31;;;;;;;7.85;4.55;;;18.60;99.90;;;;;;5033992;28;20038;-76
2021/08/27 10:05:58;;;;;;;6.95;3.30;;;18.80;99.90;;;;;;5034668;28;20030;-75
2021/08/27 10:08:33;;;;;;;8.65;4.22;;;19.10;99.90;;;;;;5034745;28;20425;-76
2021/08/27 10:11:17;;;;;;;9.30;4.03;;;19.00;99.90;;;;;;5033893;28;20390;-76
2021/08/27 10:13:43;;;;;;;6.07;4.07;;;18.90;99.90;;;;;;5036138;28;20436;-76
2021/08/27 10:16:10;;;;;;;6.28;3.83;;;18.90;99.90;;;;;;5033405;28;20032;-77
2021/08/27 10:18:36;;;;;;;7.63;3.40;;;18.80;99.90;;;;;;5033361;28;20041;-76
2021/08/27 10:21:05;;;;;;;8.20;3.65;;;18.60;99.90;;;;;;5034583;28;20033;-74
2021/08/27 10:23:30;;;;;;;8.98;3.53;;;18.60;99.90;;;;;;5033767;28;20108;-74
2021/08/27 10:25:58;;;;;;;7.90;4.05;;;18.60;99.90;;;;;;5034591;28;20116;-76
2021/08/27 10:28:30;;;;;;;6.80;3.58;;;18.70;99.90;;;;;;5033177;28;20030;-74
2021/08/27 10:30:59;;;;;;;7.80;3.88;;;18.70;99.90;;;;;;5033034;28;20553;-75
2021/08/27 10:33:57;;;;;;;9.43;3.97;;;18.80;99.90;;;;;;5034529;28;20044;-75
2021/08/27 10:36:23;;;;;;;7.95;3.35;;;18.90;99.90;;;;;;5001031;28;20045;-76
2021/08/27 10:38:53;;;;;;;10.02;3.60;;;19.10;99.90;;;;;;5034532;28;20664;-75
2021/08/27 10:41:32;;;;;;;8.55;3.75;;;19.00;99.90;;;;;;5034096;28;20025;-76
2021/08/27 10:44:09;;;;;;;7.93;4.10;;;19.00;99.90;;;;;;5033675;28;20038;-75
2021/08/27 10:46:44;;;;;;;6.28;3.90;;;19.00;99.90;;;;;;5032348;28;20044;-76
2021/08/27 10:49:14;;;;;;;7.10;3.85;;;19.00;99.90;;;;;;5032732;28;20030;-76
2021/08/27 10:51:43;;;;;;;6.05;3.95;;;19.10;99.90;;;;;;5032976;28;20030;-75
2021/08/27 10:54:12;;;;;;;8.50;4.38;;;19.10;99.90;;;;;;5034209;28;20494;-76
2021/08/27 10:56:40;;;;;;;6.40;3.55;;;19.10;99.90;;;;;;5032542;28;20116;-75
2021/08/27 10:59:08;;;;;;;7.50;3.40;;;19.10;99.90;;;;;;5034306;28;20482;-75
2021/08/27 11:01:37;;;;;;;9.98;3.85;;;19.00;99.90;;;;;;5033841;28;20399;-76
2021/08/27 11:04:10;;;;;;;6.57;3.38;;;19.10;99.90;;;;;;5033766;28;20030;-74
2021/08/27 11:06:52;;;;;;;5.22;3.35;;;19.10;99.90;;;;;;5034079;28;20486;-75
2021/08/27 11:09:26;;;;;;;6.63;3.65;;;19.00;99.90;;;;;;5032573;28;20105;-75
2021/08/27 11:12:11;;;;;;;5.55;3.40;;;19.10;99.90;;;;;;5033565;28;20509;-76
2021/08/27 11:14:45;;;;;;;6.85;3.40;;;19.00;99.90;;;;;;5033619;28;20056;-76
2021/08/27 11:17:13;;;;;;;7.22;3.42;;;19.10;99.90;;;;;;5033466;28;20064;-76
2021/08/27 11:19:51;;;;;;;5.07;3.22;;;19.20;99.90;;;;;;5033619;28;20064;-75
2021/08/27 11:22:30;;;;;;;5.20;3.40;;;19.30;99.90;;;;;;5032182;28;20108;-76
2021/08/27 11:25:02;;;;;;;5.78;3.58;;;19.40;99.90;;;;;;5033701;28;20159;-76
2021/08/27 11:27:30;;;;;;;6.57;3.80;;;19.30;99.90;;;;;;5032336;28;20038;-76
2021/08/27 11:30:01;;;;;;;7.03;3.78;;;19.00;99.90;;;;;;5032176;28;20033;-75
2021/08/27 11:32:27;;;;;;;7.22;3.95;;;19.00;99.90;;;;;;5032257;28;20037;-75
2021/08/27 11:35:02;;;;;;;7.55;3.47;;;19.30;99.90;;;;;;5032825;28;20120;-76
2021/08/27 11:37:36;;;;;;;8.05;4.03;;;19.50;99.90;;;;;;5031876;28;20025;-75
2021/08/27 11:40:13;;;;;;;10.00;4.38;;;19.50;99.90;;;;;;5031848;28;20041;-75
2021/08/27 11:42:42;;;;;;;7.93;3.97;;;19.50;99.90;;;;;;5032901;28;20033;-76
2021/08/27 11:45:17;;;;;;;5.30;3.20;;;19.40;99.90;;;;;;5031664;28;20495;-76
2021/08/27 11:48:00;;;;;;;11.23;3.65;;;19.80;99.90;;;;;;5012305;28;20026;-76
2021/08/27 11:50:33;;;;;;;7.10;3.63;;;19.90;99.90;;;;;;5012281;28;20125;-76
2021/08/27 11:53:01;;;;;;;9.85;3.85;;;19.80;99.90;;;;;;5013131;28;20034;-76
2021/08/27 11:55:29;;;;;;;5.25;3.47;;;20.00;99.40;;;;;;4995360;28;20401;-76
2021/08/27 11:58:01;;;;;;;6.63;3.33;;;20.20;99.70;;;;;;5011621;28;20037;-76
2021/08/27 12:00:38;;;;;;;6.25;3.42;;;20.40;99.00;;;;;;5012264;28;20041;-76
2021/08/27 12:03:05;;;;;;;6.20;3.53;;;20.50;98.40;;;;;;5013024;28;20088;-75
2021/08/27 12:05:32;;;;;;;7.82;3.45;;;20.50;98.50;;;;;;5013013;28;20037;-76
2021/08/27 12:08:05;;;;;;;7.43;3.53;;;20.60;97.90;;;;;;5011884;28;20034;-76
2021/08/27 12:10:36;;;;;;;6.82;2.85;;;20.60;97.70;;;;;;5011457;28;20553;-76
2021/08/27 12:13:05;;;;;;;9.38;3.35;;;20.50;97.50;;;;;;5011540;28;20043;-76
2021/08/27 12:15:34;;;;;;;7.15;3.33;;;20.40;97.80;;;;;;5011604;28;20034;-76
2021/08/27 12:18:04;;;;;;;5.53;3.17;;;20.30;98.40;;;;;;5020165;28;20056;-76
2021/08/27 12:20:38;;;;;;;11.88;5.40;;;20.20;98.30;;;;;;5032497;28;20033;-76
2021/08/27 12:23:14;;;;;;;6.57;4.10;;;20.60;98.00;;;;;;5031171;28;20049;-76
2021/08/27 12:25:47;;;;;;;7.55;3.88;;;20.70;97.90;;;;;;5031064;28;20107;-76
2021/08/27 12:28:17;;;;;;;6.22;3.50;;;20.70;98.30;;;;;;5031163;28;20049;-75
2021/08/27 12:30:58;;;;;;;6.82;3.40;;;21.10;97.60;;;;;;5032172;28;20037;-76
2021/08/27 12:33:26;;;;;;;6.25;3.53;;;21.00;96.90;;;;;;5030679;28;20474;-76
2021/08/27 12:35:55;;;;;;;8.48;3.30;;;20.70;97.60;;;;;;5014634;28;20044;-76
2021/08/27 12:38:22;;;;;;;5.90;3.63;;;20.30;97.50;;;;;;5032149;28;20112;-76
2021/08/27 12:40:49;;;;;;;8.27;3.38;;;20.20;98.10;;;;;;5014286;28;20091;-76
2021/08/27 12:43:22;;;;;;;4.32;2.88;;;20.20;98.10;;;;;;5030970;28;20506;-76
2021/08/27 12:45:55;;;;;;;5.65;2.90;;;20.10;98.40;;;;;;5031989;28;20084;-76
2021/08/27 12:48:23;;;;;;;5.57;2.60;;;20.40;97.40;;;;;;5030770;28;20056;-77
2021/08/27 12:50:53;;;;;;;6.05;2.38;;;21.10;96.50;;;;;;5031920;28;20038;-76
2021/08/27 12:53:44;;;;;;;5.13;2.08;;;21.80;96.20;;;;;;5014640;28;20038;-76
2021/08/27 12:56:19;;;;;;;4.55;2.40;;;22.10;94.40;;;;;;5031948;28;20030;-76